Time;durP1;ratioP1;P1;durP2;ratioP2;P2;SDS_P1;SDS_P2;PMS_P1;PMS_P2;Temp;Humidity;BMP_temperature;BMP_pressure;BME280_temperature;BME280_humidity;BME280_pressure;Samples;Min_cycle;Max_cycle;Signal;HPM_P1;HPM_P2
2023/11/01 00:02:21;;;;;;;3.23;1.00;;;13.50;91.20;;;;;;5010917;28;20448;-47
2023/11/01 00:04:49;;;;;;;1.67;0.70;;;13.50;91.20;;;;;;5009037;28;20480;-46
2023/11/01 00:07:17;;;;;;;3.00;1.20;;;13.50;91.10;;;;;;5010966;28;20510;-45
2023/11/01 00:09:46;;;;;;;1.40;0.73;;;13.50;91.10;;;;;;5009317;28;20831;-47
2023/11/01 00:12:14;;;;;;;3.83;0.90;;;13.50;91.10;;;;;;5010812;28;20479;-48
2023/11/01 00:14:42;;;;;;;1.70;0.90;;;13.50;91.00;;;;;;5010136;28;20474;-46
2023/11/01 00:17:12;;;;;;;1.50;0.93;;;13.50;91.00;;;;;;5009929;28;20447;-48
2023/11/01 00:19:40;;;;;;;3.00;0.90;;;13.50;91.00;;;;;;5009668;28;20694;-47
2023/11/01 00:22:09;;;;;;;1.47;0.77;;;13.50;91.00;;;;;;5010711;28;20427;-48
2023/11/01 00:24:38;;;;;;;2.90;1.10;;;13.50;91.00;;;;;;5008740;28;20466;-46
2023/11/01 00:27:11;;;;;;;2.63;1.00;;;13.50;91.00;;;;;;5010674;28;20521;-46
2023/11/01 00:29:39;;;;;;;2.00;0.83;;;13.50;91.00;;;;;;4990986;28;20468;-46
2023/11/01 00:32:07;;;;;;;1.57;0.70;;;13.50;91.00;;;;;;5009774;28;20445;-47
2023/11/01 00:34:37;;;;;;;1.30;0.70;;;13.50;91.00;;;;;;5009826;28;20469;-47
2023/11/01 00:37:05;;;;;;;2.00;0.80;;;13.50;91.00;;;;;;4992863;28;20954;-47
2023/11/01 00:39:33;;;;;;;1.20;0.67;;;13.50;90.90;;;;;;4989570;28;20467;-46
2023/11/01 00:42:01;;;;;;;1.20;0.80;;;13.50;90.90;;;;;;5010084;28;20941;-47
2023/11/01 00:44:28;;;;;;;1.53;0.60;;;13.50;90.90;;;;;;5009554;28;20457;-48
2023/11/01 00:46:56;;;;;;;2.43;0.97;;;13.50;90.90;;;;;;5010036;28;20468;-46
2023/11/01 00:49:24;;;;;;;1.27;0.80;;;13.50;90.90;;;;;;5007434;28;20501;-46
2023/11/01 00:51:54;;;;;;;1.50;0.90;;;13.50;90.80;;;;;;5010307;28;20441;-47
2023/11/01 00:54:22;;;;;;;2.00;0.87;;;13.50;90.80;;;;;;5008429;28;20503;-45
2023/11/01 00:56:50;;;;;;;1.30;0.60;;;13.50;90.90;;;;;;4991814;28;20449;-46
2023/11/01 00:59:18;;;;;;;2.10;0.77;;;13.50;90.90;;;;;;5009209;28;20460;-46
2023/11/01 01:01:46;;;;;;;1.90;0.80;;;13.50;90.90;;;;;;5009465;28;20446;-46
2023/11/01 01:04:14;;;;;;;3.80;1.10;;;13.50;90.90;;;;;;4991985;28;20467;-45
2023/11/01 01:06:42;;;;;;;1.40;0.70;;;13.50;91.00;;;;;;5010071;28;20462;-45
2023/11/01 01:09:12;;;;;;;2.10;0.67;;;13.50;90.90;;;;;;5007852;28;20468;-46
2023/11/01 01:11:40;;;;;;;1.83;0.80;;;13.50;91.00;;;;;;5009135;28;20545;-46
2023/11/01 01:14:08;;;;;;;2.33;1.20;;;13.50;91.00;;;;;;5009385;28;20503;-46
2023/11/01 01:16:36;;;;;;;3.63;1.00;;;13.50;91.00;;;;;;4991148;28;20475;-46
2023/11/01 01:19:05;;;;;;;3.23;0.90;;;13.50;91.00;;;;;;5008662;28;20542;-47
2023/11/01 01:21:33;;;;;;;1.20;0.70;;;13.50;91.00;;;;;;4989848;28;20442;-47
2023/11/01 01:24:01;;;;;;;5.30;1.10;;;13.60;91.00;;;;;;5005146;28;20466;-48
2023/11/01 01:26:30;;;;;;;1.70;0.87;;;13.50;91.00;;;;;;4991634;28;20814;-46
2023/11/01 01:28:58;;;;;;;1.60;0.60;;;13.50;91.10;;;;;;5009208;28;20464;-47
2023/11/01 01:31:26;;;;;;;2.90;0.83;;;13.50;91.00;;;;;;5008414;28;20424;-46
2023/11/01 01:33:55;;;;;;;1.20;0.77;;;13.50;91.10;;;;;;5007850;28;20487;-46
2023/11/01 01:36:23;;;;;;;1.50;0.63;;;13.50;91.00;;;;;;5009285;28;20445;-47
2023/11/01 01:38:51;;;;;;;3.33;1.77;;;13.50;91.40;;;;;;4990675;28;20516;-47
2023/11/01 01:41:19;;;;;;;2.20;0.83;;;13.50;91.00;;;;;;4991872;28;20451;-46
2023/11/01 01:43:48;;;;;;;1.20;0.80;;;13.50;91.10;;;;;;5007221;28;20464;-46
2023/11/01 01:46:18;;;;;;;1.63;0.73;;;13.50;91.10;;;;;;4990377;28;20474;-46
2023/11/01 01:48:47;;;;;;;3.20;0.90;;;13.50;91.00;;;;;;5008326;28;20513;-47
2023/11/01 01:51:16;;;;;;;2.30;0.90;;;13.50;91.00;;;;;;4990619;28;20793;-46
2023/11/01 01:53:47;;;;;;;3.37;1.03;;;13.50;91.10;;;;;;4990363;28;20457;-47
2023/11/01 01:56:17;;;;;;;1.70;0.77;;;13.50;91.00;;;;;;5008603;28;20453;-46
2023/11/01 01:58:45;;;;;;;1.30;0.60;;;13.50;91.10;;;;;;4974188;28;20467;-50
2023/11/01 02:01:16;;;;;;;1.20;0.80;;;13.50;91.10;;;;;;4990777;28;20428;-45
2023/11/01 02:03:44;;;;;;;1.23;0.70;;;13.50;91.10;;;;;;4988373;28;20530;-49
2023/11/01 02:06:12;;;;;;;1.97;1.17;;;13.50;91.20;;;;;;5009231;28;20449;-48
2023/11/01 02:08:40;;;;;;;2.03;0.70;;;13.50;91.20;;;;;;5007485;28;20465;-46
2023/11/01 02:11:08;;;;;;;1.77;0.90;;;13.50;91.10;;;;;;4988720;28;20466;-47
2023/11/01 02:13:36;;;;;;;3.60;0.97;;;13.50;91.10;;;;;;4989073;28;20468;-46
2023/11/01 02:16:07;;;;;;;1.20;0.67;;;13.50;91.00;;;;;;4991254;28;20545;-47
2023/11/01 02:18:37;;;;;;;1.60;0.83;;;13.50;91.50;;;;;;5005144;28;20558;-46
2023/11/01 02:21:06;;;;;;;2.60;1.17;;;13.50;91.10;;;;;;4989337;28;20427;-46
2023/11/01 02:23:36;;;;;;;3.83;0.90;;;13.50;91.10;;;;;;5006063;28;20450;-46
2023/11/01 02:26:04;;;;;;;1.73;1.30;;;13.50;91.10;;;;;;5008622;28;20459;-47
2023/11/01 02:28:32;;;;;;;1.80;0.90;;;13.50;91.10;;;;;;4987890;28;20466;-46
2023/11/01 02:31:00;;;;;;;1.60;0.90;;;13.50;91.10;;;;;;5007974;28;20723;-47
2023/11/01 02:33:28;;;;;;;2.07;1.00;;;13.50;91.10;;;;;;5007340;28;20944;-47
2023/11/01 02:35:57;;;;;;;1.70;0.70;;;13.50;91.10;;;;;;5008512;28;20471;-47
2023/11/01 02:38:25;;;;;;;1.37;0.77;;;13.50;91.10;;;;;;5005119;28;20788;-46
2023/11/01 02:40:55;;;;;;;2.70;0.80;;;13.50;91.20;;;;;;4990128;28;20434;-46
2023/11/01 02:43:23;;;;;;;1.00;0.60;;;13.50;91.10;;;;;;5007526;28;20859;-47
2023/11/01 02:45:51;;;;;;;2.40;0.70;;;13.50;91.10;;;;;;5007894;28;20492;-49
2023/11/01 02:48:19;;;;;;;4.03;0.90;;;13.50;91.10;;;;;;5012102;28;20474;-46
2023/11/01 02:50:47;;;;;;;1.90;0.90;;;13.50;91.20;;;;;;5009659;28;20444;-48
2023/11/01 02:53:15;;;;;;;1.43;0.90;;;13.50;91.20;;;;;;5013157;28;20519;-46
2023/11/01 02:55:43;;;;;;;2.53;0.87;;;13.50;91.20;;;;;;5031341;28;20476;-46
2023/11/01 02:58:13;;;;;;;2.23;1.03;;;13.50;91.30;;;;;;5032389;28;20421;-47
2023/11/01 03:00:41;;;;;;;1.20;0.60;;;13.50;91.40;;;;;;5031410;28;20559;-46
2023/11/01 03:03:09;;;;;;;1.90;0.70;;;13.50;91.20;;;;;;5031169;28;20441;-46
2023/11/01 03:05:37;;;;;;;2.10;0.67;;;13.50;91.20;;;;;;5031229;28;20482;-47
2023/11/01 03:08:05;;;;;;;2.67;0.90;;;13.50;91.00;;;;;;5030873;28;20474;-45
2023/11/01 03:10:34;;;;;;;1.27;0.90;;;13.50;91.20;;;;;;5030837;28;20465;-45
2023/11/01 03:13:02;;;;;;;2.23;0.90;;;13.50;91.00;;;;;;5031733;28;20549;-46
2023/11/01 03:15:31;;;;;;;1.30;0.80;;;13.50;91.10;;;;;;5030773;28;20473;-46
2023/11/01 03:17:59;;;;;;;1.47;0.70;;;13.50;91.40;;;;;;5031106;28;20442;-48
2023/11/01 03:20:27;;;;;;;1.83;0.60;;;13.50;91.50;;;;;;5012806;28;20480;-48
2023/11/01 03:22:55;;;;;;;1.20;0.70;;;13.50;91.60;;;;;;5013080;28;20514;-47
2023/11/01 03:25:24;;;;;;;2.50;0.83;;;13.50;91.50;;;;;;5030369;28;20497;-47
2023/11/01 03:27:52;;;;;;;1.60;0.80;;;13.50;91.30;;;;;;5031556;28;20440;-46
2023/11/01 03:30:22;;;;;;;1.53;0.90;;;13.50;91.20;;;;;;5012352;28;20832;-47
2023/11/01 03:32:51;;;;;;;0.90;0.57;;;13.50;91.70;;;;;;5027180;28;20434;-48
2023/11/01 03:35:20;;;;;;;1.27;0.60;;;13.50;91.60;;;;;;5012432;28;20566;-46
2023/11/01 03:37:48;;;;;;;2.30;0.70;;;13.50;91.60;;;;;;5030827;28;20443;-48
2023/11/01 03:40:16;;;;;;;1.37;0.53;;;13.50;91.80;;;;;;5030712;28;20470;-47
2023/11/01 03:42:44;;;;;;;1.03;0.73;;;13.50;91.80;;;;;;5031259;28;20451;-47
2023/11/01 03:45:12;;;;;;;1.60;0.67;;;13.50;91.60;;;;;;5029770;28;20488;-46
2023/11/01 03:47:41;;;;;;;1.83;0.67;;;13.50;91.90;;;;;;5011831;28;20505;-48
2023/11/01 03:50:11;;;;;;;2.13;0.77;;;13.50;91.50;;;;;;5030413;28;20472;-47
2023/11/01 03:52:39;;;;;;;1.20;0.70;;;13.50;91.60;;;;;;5030759;28;20442;-46
2023/11/01 03:55:11;;;;;;;1.57;0.60;;;13.50;91.40;;;;;;5028707;28;21038;-47
2023/11/01 03:57:39;;;;;;;1.77;0.90;;;13.50;91.90;;;;;;5013047;28;20511;-47
2023/11/01 04:00:08;;;;;;;2.20;0.90;;;13.50;91.50;;;;;;5028871;28;20470;-47
2023/11/01 04:02:37;;;;;;;1.73;0.70;;;13.50;91.60;;;;;;5028012;28;20872;-46
2023/11/01 04:05:06;;;;;;;2.30;0.60;;;13.50;91.70;;;;;;5029225;28;20475;-47
2023/11/01 04:07:36;;;;;;;1.30;0.83;;;13.50;91.60;;;;;;5030381;28;20427;-47
2023/11/01 04:10:05;;;;;;;3.63;1.97;;;13.50;91.70;;;;;;5028991;28;20871;-48
2023/11/01 04:12:33;;;;;;;5.00;0.90;;;13.50;91.70;;;;;;5029770;28;20778;-46
2023/11/01 04:15:01;;;;;;;3.70;0.70;;;13.50;91.90;;;;;;5029939;28;20473;-46
2023/11/01 04:17:29;;;;;;;1.23;0.63;;;13.40;91.50;;;;;;5029425;28;20524;-46
2023/11/01 04:19:58;;;;;;;1.43;0.73;;;13.50;91.70;;;;;;5031242;28;20473;-46
2023/11/01 04:22:28;;;;;;;5.73;0.90;;;13.50;91.70;;;;;;5009381;28;20431;-47
2023/11/01 04:24:57;;;;;;;2.13;0.60;;;13.50;92.10;;;;;;5026519;28;20861;-46
2023/11/01 04:27:25;;;;;;;1.80;0.83;;;13.50;91.50;;;;;;5026754;28;20443;-48
2023/11/01 04:29:54;;;;;;;1.60;0.70;;;13.50;91.60;;;;;;5025406;28;20486;-46
2023/11/01 04:32:22;;;;;;;1.17;0.60;;;13.50;91.50;;;;;;5028467;28;20524;-45
2023/11/01 04:34:50;;;;;;;1.10;0.80;;;13.50;91.60;;;;;;5010987;28;20470;-47
2023/11/01 04:37:19;;;;;;;2.27;0.60;;;13.50;91.60;;;;;;5029625;28;20979;-47
2023/11/01 04:39:47;;;;;;;1.63;0.63;;;13.50;91.40;;;;;;5027160;28;20508;-47
2023/11/01 04:42:17;;;;;;;2.33;0.87;;;13.50;91.50;;;;;;5029804;28;20438;-47
2023/11/01 04:44:45;;;;;;;1.73;0.80;;;13.50;91.60;;;;;;5029159;28;20527;-47
2023/11/01 04:47:13;;;;;;;1.50;0.53;;;13.50;91.80;;;;;;5028842;28;20468;-47
2023/11/01 04:49:42;;;;;;;3.13;0.70;;;13.50;91.50;;;;;;5010505;28;20534;-46
2023/11/01 04:52:11;;;;;;;1.20;0.50;;;13.50;91.40;;;;;;5011196;28;20948;-46
2023/11/01 04:54:39;;;;;;;2.20;0.87;;;13.40;91.40;;;;;;5007168;28;20471;-47
2023/11/01 04:57:07;;;;;;;2.83;1.10;;;13.50;91.60;;;;;;5009409;28;20514;-48
2023/11/01 04:59:36;;;;;;;1.70;0.63;;;13.40;91.40;;;;;;5007729;28;20473;-48
2023/11/01 05:02:05;;;;;;;2.20;1.37;;;13.40;91.60;;;;;;5007740;28;20449;-47
2023/11/01 05:04:36;;;;;;;2.10;0.83;;;13.50;91.50;;;;;;5008298;28;20484;-48
2023/11/01 05:07:04;;;;;;;1.90;0.90;;;13.40;91.60;;;;;;5009797;28;20439;-46
2023/11/01 05:09:33;;;;;;;3.87;1.97;;;13.50;91.50;;;;;;5007301;28;20842;-46
2023/11/01 05:12:01;;;;;;;3.00;0.90;;;13.40;91.40;;;;;;4988814;28;20531;-48
2023/11/01 05:14:30;;;;;;;2.47;0.90;;;13.40;91.40;;;;;;4988772;28;20521;-47
2023/11/01 05:17:02;;;;;;;2.13;0.90;;;13.40;91.50;;;;;;5008943;28;20830;-46
2023/11/01 05:19:30;;;;;;;2.57;0.97;;;13.40;91.60;;;;;;5004874;28;20465;-46
2023/11/01 05:21:58;;;;;;;4.43;0.80;;;13.40;91.60;;;;;;5008872;28;20431;-46
2023/11/01 05:24:26;;;;;;;1.20;0.80;;;13.40;91.60;;;;;;5005610;28;20469;-47
2023/11/01 05:26:57;;;;;;;3.20;0.77;;;13.40;91.50;;;;;;4991893;28;20435;-46
2023/11/01 05:29:25;;;;;;;2.83;1.20;;;13.40;91.60;;;;;;5006566;28;20523;-50
2023/11/01 05:31:55;;;;;;;1.33;0.67;;;13.40;91.60;;;;;;5006337;28;20436;-47
2023/11/01 05:34:25;;;;;;;2.40;0.80;;;13.40;91.60;;;;;;5006286;28;20463;-47
2023/11/01 05:36:53;;;;;;;1.57;0.97;;;13.40;91.60;;;;;;5008722;28;20449;-47
2023/11/01 05:39:24;;;;;;;2.33;1.00;;;13.40;91.70;;;;;;4987547;28;20560;-48
2023/11/01 05:41:52;;;;;;;2.60;0.70;;;13.40;91.70;;;;;;5009532;28;20792;-47
2023/11/01 05:44:20;;;;;;;4.10;1.00;;;13.40;91.60;;;;;;5007427;28;20477;-47
2023/11/01 05:46:49;;;;;;;2.90;0.70;;;13.40;91.50;;;;;;5006988;28;20496;-46
2023/11/01 05:49:17;;;;;;;2.17;0.93;;;13.40;91.50;;;;;;5005675;28;20471;-46
2023/11/01 05:51:49;;;;;;;3.47;0.83;;;13.40;91.60;;;;;;5007580;28;20438;-45
2023/11/01 05:54:17;;;;;;;1.33;0.70;;;13.40;91.50;;;;;;5004087;28;20462;-45
2023/11/01 05:56:45;;;;;;;2.07;0.70;;;13.40;91.30;;;;;;5007266;28;20458;-47
2023/11/01 05:59:13;;;;;;;1.63;0.90;;;13.40;91.40;;;;;;5006303;28;20457;-46
2023/11/01 06:01:42;;;;;;;3.33;1.50;;;13.40;91.50;;;;;;5006228;28;20438;-46
2023/11/01 06:04:10;;;;;;;2.10;0.70;;;13.40;91.60;;;;;;5005509;28;20601;-48
2023/11/01 06:06:38;;;;;;;2.17;0.73;;;13.40;91.50;;;;;;5007127;28;20446;-47
2023/11/01 06:09:07;;;;;;;5.37;1.23;;;13.40;91.50;;;;;;5002942;28;21013;-47
2023/11/01 06:11:36;;;;;;;1.73;1.23;;;13.40;91.50;;;;;;5005980;28;20455;-47
2023/11/01 06:14:06;;;;;;;1.33;0.70;;;13.40;91.50;;;;;;5007076;28;20462;-48
2023/11/01 06:16:34;;;;;;;2.23;0.87;;;13.40;91.40;;;;;;5007890;28;20492;-46
2023/11/01 06:19:02;;;;;;;2.80;0.90;;;13.40;91.40;;;;;;5000500;28;20565;-47
2023/11/01 06:21:33;;;;;;;2.60;0.83;;;13.40;91.50;;;;;;5006231;28;20863;-47
2023/11/01 06:24:01;;;;;;;5.73;1.40;;;13.40;91.40;;;;;;5002863;28;20461;-49
2023/11/01 06:26:31;;;;;;;2.10;0.80;;;13.40;91.40;;;;;;5004490;28;20482;-46
2023/11/01 06:28:59;;;;;;;1.87;1.20;;;13.40;91.50;;;;;;5005384;28;20478;-50
2023/11/01 06:31:28;;;;;;;3.83;1.33;;;13.40;91.50;;;;;;5002358;28;20508;-47
2023/11/01 06:33:56;;;;;;;3.63;1.20;;;13.40;91.50;;;;;;5005294;28;20466;-47
2023/11/01 06:36:24;;;;;;;1.10;0.63;;;13.40;91.30;;;;;;5007190;28;20692;-46
2023/11/01 06:38:54;;;;;;;1.77;0.80;;;13.40;91.50;;;;;;5001911;28;20464;-45
2023/11/01 06:41:25;;;;;;;3.63;1.17;;;13.40;91.50;;;;;;5007901;28;20437;-47
2023/11/01 06:43:56;;;;;;;1.50;0.90;;;13.40;91.90;;;;;;4984023;28;20455;-47
2023/11/01 06:46:25;;;;;;;2.20;1.30;;;13.40;92.00;;;;;;5002887;28;21074;-47
2023/11/01 06:48:53;;;;;;;3.07;1.17;;;13.40;91.50;;;;;;5004673;28;20967;-46
2023/11/01 06:51:21;;;;;;;2.33;0.83;;;13.40;91.50;;;;;;5009516;28;20469;-47
2023/11/01 06:53:51;;;;;;;1.33;0.57;;;13.40;91.50;;;;;;5006790;28;20476;-46
2023/11/01 06:56:19;;;;;;;4.43;1.80;;;13.40;91.40;;;;;;5009472;28;20497;-46
2023/11/01 06:58:50;;;;;;;3.17;1.00;;;13.40;91.50;;;;;;5007618;28;20928;-45
2023/11/01 07:01:20;;;;;;;1.20;0.57;;;13.40;91.40;;;;;;4999676;28;20421;-46
2023/11/01 07:03:48;;;;;;;2.30;0.80;;;13.40;91.40;;;;;;5006420;28;20460;-47
2023/11/01 07:06:16;;;;;;;1.70;0.80;;;13.40;92.00;;;;;;5006972;28;20554;-48
2023/11/01 07:08:45;;;;;;;2.67;0.93;;;13.40;91.30;;;;;;5005079;28;20856;-47
2023/11/01 07:11:18;;;;;;;3.37;0.87;;;13.40;91.40;;;;;;5011457;28;20979;-48
2023/11/01 07:13:47;;;;;;;6.80;1.43;;;13.40;91.20;;;;;;5006662;28;20451;-47
2023/11/01 07:16:15;;;;;;;2.30;1.00;;;13.40;91.50;;;;;;5008953;28;20465;-46
2023/11/01 07:18:44;;;;;;;2.07;0.83;;;13.40;91.40;;;;;;5007109;28;20447;-45
2023/11/01 07:21:18;;;;;;;3.13;1.00;;;13.40;91.40;;;;;;5008618;28;20437;-47
2023/11/01 07:23:47;;;;;;;1.77;0.87;;;13.40;91.30;;;;;;5006894;28;20474;-46
2023/11/01 07:26:15;;;;;;;3.00;1.90;;;13.40;91.40;;;;;;5008650;28;20498;-48
2023/11/01 07:28:44;;;;;;;3.50;1.13;;;13.40;91.20;;;;;;5005767;28;20432;-47
2023/11/01 07:31:13;;;;;;;2.70;1.13;;;13.40;91.30;;;;;;5006800;28;20475;-45
2023/11/01 07:33:42;;;;;;;3.00;1.27;;;13.40;91.20;;;;;;5005622;28;20887;-48
2023/11/01 07:36:12;;;;;;;2.50;1.00;;;13.40;91.30;;;;;;4989069;28;20473;-47
2023/11/01 07:38:41;;;;;;;1.83;0.70;;;13.40;91.30;;;;;;5010635;28;20480;-46
2023/11/01 07:41:11;;;;;;;1.50;0.97;;;13.40;91.00;;;;;;5009533;28;20433;-46
2023/11/01 07:43:40;;;;;;;1.60;0.83;;;13.40;91.40;;;;;;5011505;28;21130;-47
2023/11/01 07:46:09;;;;;;;3.63;1.07;;;13.40;91.20;;;;;;5013058;28;22017;-46
2023/11/01 07:48:38;;;;;;;3.77;1.33;;;13.40;91.20;;;;;;5009652;28;20452;-46
2023/11/01 07:51:07;;;;;;;3.63;0.97;;;13.40;91.20;;;;;;5008956;28;20460;-48
2023/11/01 07:53:39;;;;;;;1.83;1.10;;;13.40;91.20;;;;;;5005199;28;20440;-45
2023/11/01 07:56:07;;;;;;;2.17;1.27;;;13.40;91.10;;;;;;5008080;28;20446;-46
2023/11/01 07:58:35;;;;;;;2.80;0.90;;;13.40;91.10;;;;;;4992250;28;20453;-46
2023/11/01 08:01:05;;;;;;;2.40;1.30;;;13.40;91.10;;;;;;5009065;28;20458;-48
2023/11/01 08:03:35;;;;;;;2.23;0.90;;;13.40;91.10;;;;;;5007902;28;20453;-46
2023/11/01 08:06:04;;;;;;;1.93;1.10;;;13.40;91.20;;;;;;5009138;28;20457;-47
2023/11/01 08:08:32;;;;;;;2.47;1.30;;;13.40;91.20;;;;;;5004634;28;20450;-48
2023/11/01 08:11:01;;;;;;;2.53;0.67;;;13.40;91.20;;;;;;5009293;28;21064;-48
2023/11/01 08:13:30;;;;;;;2.93;0.93;;;13.40;91.20;;;;;;5008944;28;20798;-48
2023/11/01 08:15:58;;;;;;;4.03;1.23;;;13.40;91.20;;;;;;5006611;28;21095;-46
2023/11/01 08:18:31;;;;;;;1.23;0.77;;;13.50;91.30;;;;;;5003747;28;20447;-49
2023/11/01 08:20:59;;;;;;;2.27;0.73;;;13.40;91.10;;;;;;5009607;28;20451;-47
2023/11/01 08:23:27;;;;;;;3.63;0.93;;;13.40;91.30;;;;;;5006245;28;20435;-47
2023/11/01 08:25:56;;;;;;;2.83;0.80;;;13.40;91.60;;;;;;5010286;28;20453;-47
2023/11/01 08:28:25;;;;;;;2.53;0.93;;;13.40;91.30;;;;;;5010309;28;20447;-46
2023/11/01 08:30:54;;;;;;;1.50;0.80;;;13.40;91.10;;;;;;5006455;28;20477;-47
2023/11/01 08:33:27;;;;;;;2.77;1.00;;;13.50;91.20;;;;;;5007217;28;20980;-48
2023/11/01 08:35:58;;;;;;;1.27;0.53;;;13.40;91.20;;;;;;5006639;28;20434;-46
2023/11/01 08:38:26;;;;;;;1.93;0.90;;;13.40;91.10;;;;;;5005022;28;20452;-47
2023/11/01 08:40:55;;;;;;;2.13;0.90;;;13.40;91.20;;;;;;5006066;28;20577;-46
2023/11/01 08:43:24;;;;;;;2.13;1.30;;;13.40;91.10;;;;;;4992830;28;20437;-46
2023/11/01 08:45:53;;;;;;;2.33;1.13;;;13.40;91.10;;;;;;5007199;28;20488;-51
2023/11/01 08:48:21;;;;;;;4.73;0.97;;;13.40;91.20;;;;;;5009072;28;21055;-49
2023/11/01 08:50:49;;;;;;;2.40;1.00;;;13.40;91.10;;;;;;5007397;28;20474;-48
2023/11/01 08:53:18;;;;;;;1.67;0.83;;;13.40;91.10;;;;;;4989654;28;20462;-46
2023/11/01 08:55:46;;;;;;;2.07;1.10;;;13.40;91.30;;;;;;5007970;28;20487;-47
2023/11/01 08:58:14;;;;;;;2.10;0.93;;;13.40;91.00;;;;;;5009275;28;20432;-46
2023/11/01 09:00:43;;;;;;;1.37;0.83;;;13.40;91.10;;;;;;4990201;28;20469;-46
2023/11/01 09:03:18;;;;;;;2.70;1.03;;;13.40;91.60;;;;;;5007436;28;20560;-47
2023/11/01 09:05:50;;;;;;;4.63;1.00;;;13.40;91.20;;;;;;5008905;28;20561;-47
2023/11/01 09:08:19;;;;;;;1.30;0.80;;;13.40;91.10;;;;;;5007784;28;20536;-47
2023/11/01 09:10:48;;;;;;;3.00;1.03;;;13.50;91.20;;;;;;5007954;28;20446;-48
2023/11/01 09:13:20;;;;;;;2.47;1.00;;;13.40;91.20;;;;;;5009432;28;20433;-46
2023/11/01 09:15:50;;;;;;;1.70;0.70;;;13.40;91.20;;;;;;5008323;28;20473;-48
2023/11/01 09:18:18;;;;;;;1.73;0.80;;;13.40;91.10;;;;;;5005449;28;20537;-45
2023/11/01 09:20:46;;;;;;;3.17;1.10;;;13.40;91.10;;;;;;4989082;28;20481;-46
2023/11/01 09:23:14;;;;;;;2.17;0.87;;;13.40;91.00;;;;;;4987767;28;21377;-45
2023/11/01 09:25:46;;;;;;;2.17;0.63;;;13.40;91.10;;;;;;5006701;28;20904;-47
2023/11/01 09:28:14;;;;;;;2.50;0.90;;;13.40;91.20;;;;;;5010891;28;20424;-46
2023/11/01 09:30:42;;;;;;;1.70;0.80;;;13.40;91.10;;;;;;5009084;28;20460;-46
2023/11/01 09:33:12;;;;;;;1.83;0.90;;;13.40;91.10;;;;;;5006630;28;20480;-46
2023/11/01 09:35:43;;;;;;;1.20;0.80;;;13.40;91.00;;;;;;5006351;28;21027;-48
2023/11/01 09:38:12;;;;;;;1.50;0.90;;;13.40;91.10;;;;;;5005746;28;20450;-48
2023/11/01 09:40:40;;;;;;;3.20;0.80;;;13.40;91.00;;;;;;5007325;28;20476;-47
2023/11/01 09:43:10;;;;;;;3.43;0.90;;;13.40;91.00;;;;;;5008317;28;20443;-46
2023/11/01 09:45:39;;;;;;;2.90;1.13;;;13.40;91.10;;;;;;5006533;28;20885;-47
2023/11/01 09:48:07;;;;;;;3.37;1.83;;;13.40;91.00;;;;;;5005874;28;20863;-48
2023/11/01 09:50:38;;;;;;;2.77;1.10;;;13.40;91.10;;;;;;5004677;28;20501;-47
2023/11/01 09:53:07;;;;;;;1.97;0.90;;;13.40;91.00;;;;;;5004069;28;20837;-47
2023/11/01 09:55:35;;;;;;;3.13;1.33;;;13.40;91.10;;;;;;5007866;28;20449;-46
2023/11/01 09:58:04;;;;;;;2.00;0.60;;;13.40;90.90;;;;;;5008776;28;20858;-47
2023/11/01 10:00:33;;;;;;;3.10;0.97;;;13.40;91.00;;;;;;5002130;28;20486;-49
2023/11/01 10:03:02;;;;;;;4.30;1.63;;;13.40;90.90;;;;;;5005145;28;20453;-48
2023/11/01 10:05:31;;;;;;;2.20;0.93;;;13.50;91.00;;;;;;5001977;28;20862;-47
2023/11/01 10:08:02;;;;;;;3.10;1.00;;;13.50;91.70;;;;;;5001132;28;21434;-48
2023/11/01 10:10:31;;;;;;;4.13;1.53;;;13.50;91.50;;;;;;5000303;28;21018;-48
2023/11/01 10:13:00;;;;;;;4.53;1.27;;;13.50;91.60;;;;;;5008305;28;20461;-47
2023/11/01 10:15:28;;;;;;;2.43;1.20;;;13.50;91.60;;;;;;5002437;28;20492;-48
2023/11/01 10:17:56;;;;;;;3.33;1.30;;;13.50;91.50;;;;;;5002171;28;20443;-47
2023/11/01 10:20:27;;;;;;;2.47;1.13;;;13.50;91.40;;;;;;5001634;28;20544;-47
2023/11/01 10:22:56;;;;;;;3.80;1.30;;;13.60;91.30;;;;;;4993884;28;20443;-47
2023/11/01 10:25:25;;;;;;;2.20;1.00;;;13.60;91.10;;;;;;5001381;28;20482;-46
2023/11/01 10:27:55;;;;;;;2.83;1.43;;;13.60;91.00;;;;;;4988940;28;20447;-47
2023/11/01 10:30:23;;;;;;;3.00;0.90;;;13.60;90.90;;;;;;5007512;28;20460;-50
2023/11/01 10:32:56;;;;;;;3.00;1.10;;;13.60;90.90;;;;;;5002017;28;20481;-47
2023/11/01 10:35:26;;;;;;;4.57;1.13;;;13.60;90.90;;;;;;5002254;28;20506;-48
2023/11/01 10:37:59;;;;;;;4.10;1.40;;;13.60;90.90;;;;;;4998231;28;20451;-46
2023/11/01 10:40:29;;;;;;;3.83;1.47;;;13.60;91.00;;;;;;4996044;28;20473;-48
2023/11/01 10:43:01;;;;;;;2.90;1.10;;;13.60;91.00;;;;;;4999521;28;21056;-46
2023/11/01 10:45:29;;;;;;;2.90;1.03;;;13.50;91.00;;;;;;5001805;28;20505;-46
2023/11/01 10:47:58;;;;;;;2.77;1.07;;;13.60;91.00;;;;;;4991897;28;20450;-47
2023/11/01 10:50:28;;;;;;;2.70;0.90;;;13.60;91.00;;;;;;5023726;28;20465;-46
2023/11/01 10:52:58;;;;;;;4.17;1.30;;;13.60;91.00;;;;;;5021926;28;20499;-47
2023/11/01 10:55:29;;;;;;;3.00;1.33;;;13.60;91.00;;;;;;4999888;28;20485;-46
2023/11/01 10:57:57;;;;;;;3.53;1.10;;;13.60;91.00;;;;;;5021073;28;20451;-47
2023/11/01 11:00:32;;;;;;;2.53;1.00;;;13.60;90.90;;;;;;5020723;28;20950;-46
2023/11/01 11:03:07;;;;;;;2.10;0.97;;;13.60;90.70;;;;;;5015286;28;20970;-47
2023/11/01 11:05:40;;;;;;;4.77;1.60;;;13.70;90.80;;;;;;5025660;28;21166;-47
2023/11/01 11:08:10;;;;;;;3.60;1.30;;;13.70;90.90;;;;;;5023819;28;20830;-46
2023/11/01 11:10:42;;;;;;;2.17;1.40;;;13.60;90.80;;;;;;5010616;28;20477;-49
2023/11/01 11:13:38;;;;;;;3.80;1.40;;;13.60;90.80;;;;;;5029705;28;20460;-45
2023/11/01 11:16:08;;;;;;;1.90;1.00;;;13.60;90.80;;;;;;5030107;28;20455;-47
2023/11/01 11:18:59;;;;;;;1.30;0.80;;;13.60;90.80;;;;;;5022200;28;20499;-46
2023/11/01 11:21:53;;;;;;;2.10;1.37;;;13.60;90.80;;;;;;5024170;28;20453;-48
2023/11/01 11:24:47;;;;;;;1.87;1.00;;;13.60;90.70;;;;;;5026092;28;20475;-48
2023/11/01 11:27:51;;;;;;;1.80;0.80;;;13.60;90.70;;;;;;5029499;28;20469;-48
2023/11/01 11:31:07;;;;;;;3.70;0.70;;;13.60;90.70;;;;;;5024772;28;20566;-49
2023/11/01 11:33:37;;;;;;;2.63;1.17;;;13.60;90.70;;;;;;5017473;28;21004;-47
2023/11/01 11:36:14;;;;;;;2.70;1.10;;;13.60;90.70;;;;;;5029700;28;20999;-49
2023/11/01 11:38:51;;;;;;;3.40;1.10;;;13.60;90.70;;;;;;5023790;28;20453;-47
2023/11/01 11:41:21;;;;;;;2.53;0.80;;;13.60;90.70;;;;;;5030377;28;20432;-50
2023/11/01 11:44:00;;;;;;;2.67;1.10;;;13.70;90.80;;;;;;5028631;28;20973;-47
2023/11/01 11:46:33;;;;;;;1.90;0.87;;;13.60;90.70;;;;;;5024822;28;20458;-49
2023/11/01 11:49:02;;;;;;;5.73;1.07;;;13.70;90.80;;;;;;5028382;28;20457;-48
2023/11/01 11:51:33;;;;;;;1.20;0.90;;;13.70;90.60;;;;;;5024647;28;20438;-48
2023/11/01 11:54:13;;;;;;;1.83;1.10;;;13.70;90.60;;;;;;5023934;28;20548;-47
2023/11/01 11:56:41;;;;;;;3.40;1.10;;;13.70;90.60;;;;;;5024618;28;20624;-49
2023/11/01 11:59:11;;;;;;;3.43;1.47;;;13.70;90.50;;;;;;5010974;28;20490;-48
2023/11/01 12:01:40;;;;;;;2.30;1.17;;;13.70;90.50;;;;;;5026589;28;20455;-47
2023/11/01 12:04:10;;;;;;;2.20;1.10;;;13.70;90.50;;;;;;5027092;28;20872;-46
2023/11/01 12:06:44;;;;;;;1.77;0.80;;;13.70;90.60;;;;;;5029873;28;20461;-47
2023/11/01 12:09:19;;;;;;;4.13;0.80;;;13.70;90.60;;;;;;5023276;28;20480;-47
2023/11/01 12:11:49;;;;;;;2.00;1.40;;;13.70;90.50;;;;;;5022446;28;20456;-47
2023/11/01 12:14:23;;;;;;;3.30;1.30;;;13.70;90.50;;;;;;5028422;28;20557;-46
2023/11/01 12:16:53;;;;;;;5.77;1.03;;;13.70;90.50;;;;;;5026616;28;20451;-48
2023/11/01 12:19:22;;;;;;;1.77;0.80;;;13.70;90.50;;;;;;5028815;28;20468;-47
2023/11/01 12:21:52;;;;;;;2.73;0.90;;;13.70;90.50;;;;;;5029984;28;20974;-47
2023/11/01 12:24:23;;;;;;;3.03;1.40;;;13.70;90.50;;;;;;5019589;28;20576;-48
2023/11/01 12:27:03;;;;;;;2.10;1.00;;;13.70;90.90;;;;;;5019568;28;20465;-47
2023/11/01 12:29:40;;;;;;;2.43;1.23;;;13.70;90.50;;;;;;5021229;28;20543;-47
2023/11/01 12:32:10;;;;;;;3.00;1.17;;;13.70;90.50;;;;;;5018263;28;20445;-47
2023/11/01 12:34:39;;;;;;;1.73;0.90;;;13.70;90.40;;;;;;5026117;28;20460;-46
2023/11/01 12:37:10;;;;;;;2.30;0.83;;;13.70;90.40;;;;;;5028431;28;20421;-47
2023/11/01 12:39:39;;;;;;;2.57;1.10;;;13.70;90.40;;;;;;5024396;28;20470;-46
2023/11/01 12:42:23;;;;;;;4.90;1.30;;;13.70;90.40;;;;;;5023797;28;20793;-49
2023/11/01 12:44:55;;;;;;;2.67;1.00;;;13.70;90.40;;;;;;5018166;28;20512;-47
2023/11/01 12:47:24;;;;;;;3.87;1.00;;;13.70;90.40;;;;;;5018177;28;20446;-48
2023/11/01 12:49:54;;;;;;;2.07;0.80;;;13.70;90.40;;;;;;4998127;28;20561;-46
2023/11/01 12:52:22;;;;;;;3.37;1.50;;;13.70;90.30;;;;;;5019221;28;20973;-47
2023/11/01 12:54:50;;;;;;;1.40;0.80;;;13.70;90.80;;;;;;5026099;28;21077;-47
2023/11/01 12:57:21;;;;;;;4.10;1.13;;;13.70;90.30;;;;;;5034205;28;20441;-47
2023/11/01 12:59:49;;;;;;;4.43;1.60;;;13.70;90.30;;;;;;5028063;28;20468;-47
2023/11/01 13:02:19;;;;;;;2.10;0.80;;;13.70;90.20;;;;;;5029034;28;20484;-45